createdAt,value
2019-02-26T00:01:21.080Z,10.20
2019-02-26T00:03:50.881Z,10.20
2019-02-26T00:06:20.670Z,10.30
2019-02-26T00:08:53.266Z,10.90
2019-02-26T00:11:24.373Z,10.90
2019-02-26T00:13:52.420Z,11.07
2019-02-26T00:16:22.156Z,11.27
2019-02-26T00:18:51.070Z,11.00
2019-02-26T00:21:22.006Z,10.77
2019-02-26T00:23:51.475Z,10.90
2019-02-26T00:26:22.438Z,11.90
2019-02-26T00:28:51.553Z,11.47
2019-02-26T00:31:21.422Z,10.40
2019-02-26T00:33:51.380Z,11.33
2019-02-26T00:36:20.356Z,11.63
2019-02-26T00:38:49.156Z,10.87
2019-02-26T00:41:20.307Z,11.00
2019-02-26T00:43:51.232Z,10.53
2019-02-26T00:46:19.397Z,11.63
2019-02-26T00:48:48.249Z,10.03
2019-02-26T00:51:18.831Z,10.87
2019-02-26T00:53:50.822Z,15.10
2019-02-26T00:56:18.246Z,13.60
2019-02-26T00:58:48.363Z,16.80
2019-02-26T01:01:19.917Z,14.00
2019-02-26T01:03:49.906Z,14.23
2019-02-26T01:06:19.588Z,12.40
2019-02-26T01:08:48.361Z,12.10
2019-02-26T01:11:19.332Z,13.00
2019-02-26T01:13:48.734Z,11.67
2019-02-26T01:16:18.286Z,10.90
2019-02-26T01:18:48.872Z,12.10
2019-02-26T01:21:17.660Z,11.77
2019-02-26T01:23:46.485Z,13.40
2019-02-26T01:26:15.303Z,12.07
2019-02-26T01:28:48.000Z,11.20
2019-02-26T01:31:14.988Z,11.83
2019-02-26T01:33:43.871Z,11.73
2019-02-26T01:36:14.008Z,12.28
2019-02-26T01:38:45.871Z,11.47
2019-02-26T01:41:15.573Z,11.10
2019-02-26T01:43:44.835Z,11.03
2019-02-26T01:46:14.514Z,11.48
2019-02-26T01:48:44.465Z,11.95
2019-02-26T01:51:13.344Z,12.35
2019-02-26T01:53:44.390Z,10.53
2019-02-26T01:56:13.092Z,12.25
2019-02-26T01:58:42.064Z,10.03
2019-02-26T02:01:14.033Z,9.83
2019-02-26T02:03:41.634Z,10.82
2019-02-26T02:06:11.803Z,11.08
2019-02-26T02:08:43.351Z,9.98
2019-02-26T02:11:11.844Z,10.93
2019-02-26T02:13:41.378Z,10.40
2019-02-26T02:16:11.209Z,10.40
2019-02-26T02:18:43.750Z,10.38
2019-02-26T02:21:10.725Z,8.95
2019-02-26T02:23:39.536Z,11.55
2019-02-26T02:26:11.071Z,10.20
2019-02-26T02:28:39.788Z,10.00
2019-02-26T02:31:08.797Z,11.20
2019-02-26T02:33:38.098Z,9.28
2019-02-26T02:36:07.214Z,11.22
2019-02-26T02:38:37.155Z,9.63
2019-02-26T02:41:06.769Z,10.45
2019-02-26T02:43:35.735Z,10.10
2019-02-26T02:46:04.896Z,10.30
2019-02-26T02:48:33.821Z,10.67
2019-02-26T02:51:05.338Z,10.28
2019-02-26T02:53:33.496Z,9.78
2019-02-26T02:56:03.855Z,9.93
2019-02-26T02:58:33.089Z,11.73
2019-02-26T03:01:01.933Z,10.40
2019-02-26T03:03:31.014Z,10.58
2019-02-26T03:06:02.011Z,9.28
2019-02-26T03:08:30.583Z,9.80
2019-02-26T03:10:59.592Z,9.85
2019-02-26T03:13:28.488Z,11.28
2019-02-26T03:15:59.268Z,9.70
2019-02-26T03:18:28.344Z,10.55
2019-02-26T03:20:59.339Z,10.70
2019-02-26T03:23:27.812Z,10.60
2019-02-26T03:25:56.749Z,9.25
2019-02-26T03:28:25.918Z,11.33
2019-02-26T03:30:54.869Z,9.50
2019-02-26T03:33:23.882Z,10.65
2019-02-26T03:35:52.769Z,10.60
2019-02-26T03:38:23.491Z,10.43
2019-02-26T03:40:54.702Z,10.08
2019-02-26T03:43:23.212Z,9.85
2019-02-26T03:45:52.116Z,9.88
2019-02-26T03:48:21.052Z,9.33
2019-02-26T03:50:49.979Z,10.08
2019-02-26T03:53:19.088Z,10.05
2019-02-26T03:55:48.484Z,10.00
2019-02-26T03:58:17.377Z,9.98
2019-02-26T04:00:46.987Z,9.38
2019-02-26T04:03:17.516Z,10.23
2019-02-26T04:05:46.705Z,10.28
2019-02-26T04:08:16.656Z,10.60
2019-02-26T04:10:47.950Z,9.90
2019-02-26T04:13:16.911Z,11.35
2019-02-26T04:15:46.236Z,10.68
2019-02-26T04:18:15.569Z,10.20
2019-02-26T04:20:44.509Z,10.13
2019-02-26T04:23:16.538Z,10.20
2019-02-26T04:25:56.975Z,11.00
2019-02-26T04:28:37.066Z,9.35
2019-02-26T04:31:52.181Z,10.70
2019-02-26T04:35:00.483Z,9.45
2019-02-26T04:38:26.864Z,26.73
2019-02-26T04:41:47.372Z,29.85
2019-02-26T04:45:05.952Z,10.95
2019-02-26T04:47:34.229Z,10.63
2019-02-26T04:50:06.271Z,10.72
2019-02-26T04:52:35.765Z,10.20
2019-02-26T04:55:05.087Z,10.50
2019-02-26T04:57:34.364Z,8.93
2019-02-26T05:00:05.178Z,8.43
2019-02-26T05:02:34.221Z,9.45
2019-02-26T05:05:03.166Z,9.85
2019-02-26T05:07:32.904Z,9.60
2019-02-26T05:10:02.578Z,10.28
2019-02-26T05:12:34.152Z,9.13
2019-02-26T05:15:02.188Z,8.98
2019-02-26T05:17:33.254Z,8.95
2019-02-26T05:20:03.553Z,9.55
2019-02-26T05:22:33.421Z,9.70
2019-02-26T05:25:04.667Z,9.20
2019-02-26T05:27:33.253Z,10.88
2019-02-26T05:30:02.164Z,9.70
2019-02-26T05:32:33.389Z,9.50
2019-02-26T05:35:01.573Z,10.72
2019-02-26T05:37:32.590Z,10.13
2019-02-26T05:40:01.036Z,10.30
2019-02-26T05:42:29.849Z,10.32
2019-02-26T05:45:00.734Z,10.40
2019-02-26T05:47:29.314Z,9.60
2019-02-26T05:49:59.526Z,11.65
2019-02-26T05:52:30.852Z,10.30
2019-02-26T05:54:59.436Z,10.23
2019-02-26T05:57:32.557Z,11.18
2019-02-26T05:59:59.057Z,11.08
2019-02-26T06:02:27.967Z,11.75
2019-02-26T06:04:56.878Z,10.03
2019-02-26T06:07:29.789Z,9.88
2019-02-26T06:09:59.100Z,10.00
2019-02-26T06:12:27.080Z,9.70
2019-02-26T06:15:00.319Z,8.18
2019-02-26T06:17:26.584Z,9.98
2019-02-26T06:20:01.428Z,10.55
2019-02-26T06:22:29.644Z,11.60
2019-02-26T06:25:00.278Z,11.88
2019-02-26T06:27:29.496Z,12.35
2019-02-26T06:30:00.816Z,12.18
2019-02-26T06:32:32.225Z,9.65
2019-02-26T06:34:59.446Z,9.88
2019-02-26T06:37:29.185Z,10.45
2019-02-26T06:40:00.501Z,9.90
2019-02-26T06:42:31.591Z,10.80
2019-02-26T06:45:00.343Z,10.03
2019-02-26T06:47:31.033Z,10.28
2019-02-26T06:50:00.249Z,9.53
2019-02-26T06:52:29.886Z,10.63
2019-02-26T06:55:00.944Z,9.50
2019-02-26T06:57:30.629Z,11.55
2019-02-26T07:00:01.145Z,10.75
2019-02-26T07:02:30.060Z,11.77
2019-02-26T07:04:58.991Z,10.85
2019-02-26T07:07:27.816Z,9.65
2019-02-26T07:09:58.126Z,10.88
2019-02-26T07:12:27.280Z,10.32
2019-02-26T07:14:57.985Z,9.83
2019-02-26T07:17:26.866Z,10.88
2019-02-26T07:19:57.702Z,10.05
2019-02-26T07:22:27.966Z,11.35
2019-02-26T07:24:56.965Z,11.55
2019-02-26T07:27:26.405Z,10.82
2019-02-26T07:29:56.500Z,10.50
2019-02-26T07:32:25.427Z,10.63
2019-02-26T07:34:54.224Z,10.53
2019-02-26T07:37:23.049Z,10.15
2019-02-26T07:39:51.888Z,10.20
2019-02-26T07:42:20.761Z,11.97
2019-02-26T07:44:49.688Z,11.15
2019-02-26T07:47:18.848Z,11.10
2019-02-26T07:49:47.844Z,10.70
2019-02-26T07:52:16.651Z,11.57
2019-02-26T07:54:47.074Z,11.90
2019-02-26T07:57:17.970Z,12.23
2019-02-26T07:59:47.595Z,12.15
2019-02-26T08:02:17.749Z,11.85
2019-02-26T08:04:46.598Z,12.07
2019-02-26T08:07:15.660Z,12.40
2019-02-26T08:09:44.676Z,12.70
2019-02-26T08:12:13.831Z,13.57
2019-02-26T08:14:43.383Z,13.07
2019-02-26T08:17:13.531Z,13.90
2019-02-26T08:19:46.615Z,12.70
2019-02-26T08:22:13.360Z,11.88
2019-02-26T08:24:42.288Z,12.60
2019-02-26T08:27:13.415Z,12.53
2019-02-26T08:29:42.258Z,12.17
2019-02-26T08:32:13.786Z,11.20
2019-02-26T08:34:41.706Z,12.53
2019-02-26T08:37:10.485Z,11.27
2019-02-26T08:39:39.376Z,11.73
2019-02-26T08:42:09.948Z,12.30
2019-02-26T08:44:38.897Z,12.07
2019-02-26T08:47:11.146Z,11.30
2019-02-26T08:49:40.724Z,11.77
2019-02-26T08:52:09.185Z,12.13
2019-02-26T08:54:38.099Z,10.83
2019-02-26T08:57:07.092Z,11.17
2019-02-26T08:59:35.937Z,10.30
2019-02-26T09:02:05.180Z,10.70
2019-02-26T09:04:35.141Z,11.10
2019-02-26T09:07:05.124Z,10.80
2019-02-26T09:09:34.023Z,11.70
2019-02-26T09:12:03.332Z,10.97
2019-02-26T09:14:37.147Z,10.83
2019-02-26T09:17:04.501Z,10.70
2019-02-26T09:19:35.434Z,10.20
2019-02-26T09:22:04.224Z,11.27
2019-02-26T09:24:33.104Z,10.63
2019-02-26T09:27:04.823Z,10.77
2019-02-26T09:29:34.332Z,11.27
2019-02-26T09:32:06.607Z,10.27
2019-02-26T09:34:34.899Z,9.73
2019-02-26T09:37:05.782Z,10.60
2019-02-26T09:39:36.503Z,9.70
2019-02-26T09:42:07.312Z,9.97
2019-02-26T09:44:36.925Z,9.73
2019-02-26T09:47:07.565Z,8.70
2019-02-26T09:49:36.492Z,9.80
2019-02-26T09:52:06.535Z,9.37
2019-02-26T09:54:40.252Z,8.97
2019-02-26T09:57:06.364Z,8.57
2019-02-26T09:59:35.908Z,9.30
2019-02-26T10:02:06.125Z,9.40
2019-02-26T10:04:35.473Z,8.10
2019-02-26T10:07:06.742Z,9.60
2019-02-26T10:09:37.500Z,9.47
2019-02-26T10:12:07.519Z,9.17
2019-02-26T10:14:38.356Z,9.40
2019-02-26T10:17:09.073Z,11.30
2019-02-26T10:19:38.708Z,9.07
2019-02-26T10:22:12.607Z,9.20
2019-02-26T10:24:40.461Z,9.83
2019-02-26T10:27:11.553Z,9.83
2019-02-26T10:29:42.930Z,9.37
2019-02-26T10:32:11.802Z,9.23
2019-02-26T10:34:41.245Z,10.43
2019-02-26T10:37:10.664Z,10.53
2019-02-26T10:39:39.526Z,9.67
2019-02-26T10:42:08.529Z,8.57
2019-02-26T10:44:37.324Z,10.30
2019-02-26T10:47:08.287Z,9.23
2019-02-26T10:49:36.730Z,10.73
2019-02-26T10:52:05.780Z,8.97
2019-02-26T10:54:40.130Z,9.40
2019-02-26T10:57:07.450Z,9.10
2019-02-26T10:59:36.408Z,9.70
2019-02-26T11:02:05.759Z,8.73
2019-02-26T11:04:35.936Z,9.93
2019-02-26T11:07:08.689Z,10.00
2019-02-26T11:09:35.902Z,9.30
2019-02-26T11:12:07.944Z,11.00
2019-02-26T11:14:36.327Z,11.70
2019-02-26T11:17:06.272Z,9.97
2019-02-26T11:19:36.650Z,8.83
2019-02-26T11:22:05.867Z,10.17
2019-02-26T11:24:36.203Z,10.57
2019-02-26T11:27:05.316Z,10.03
2019-02-26T11:29:36.413Z,11.20
2019-02-26T11:32:07.584Z,9.80
2019-02-26T11:34:38.250Z,9.83
2019-02-26T11:37:08.775Z,10.60
2019-02-26T11:39:37.223Z,11.00
2019-02-26T11:42:06.081Z,10.50
2019-02-26T11:44:35.056Z,10.90
2019-02-26T11:47:08.526Z,10.77
2019-02-26T11:49:39.438Z,10.97
2019-02-26T11:52:08.524Z,11.03
2019-02-26T11:54:39.696Z,10.53
2019-02-26T11:57:11.044Z,9.17
2019-02-26T11:59:41.061Z,10.00
2019-02-26T12:02:09.890Z,11.07
2019-02-26T12:04:38.981Z,11.17
2019-02-26T12:07:09.795Z,11.80
2019-02-26T12:09:40.695Z,11.43
2019-02-26T12:12:11.630Z,9.90
2019-02-26T12:14:43.052Z,9.40
2019-02-26T12:17:10.820Z,8.87
2019-02-26T12:19:39.608Z,8.13
2019-02-26T12:22:08.577Z,7.33
2019-02-26T12:24:37.749Z,8.47
2019-02-26T12:27:07.382Z,8.07
2019-02-26T12:29:37.181Z,6.87
2019-02-26T12:32:06.048Z,7.57
2019-02-26T12:34:35.928Z,8.90
2019-02-26T12:37:08.731Z,8.93
2019-02-26T12:39:36.360Z,8.30
2019-02-26T12:42:07.129Z,7.70
2019-02-26T12:44:39.458Z,8.03
2019-02-26T12:47:06.818Z,7.40
2019-02-26T12:49:38.395Z,6.20
2019-02-26T12:52:06.601Z,5.90
2019-02-26T12:54:37.812Z,6.30
2019-02-26T12:57:05.995Z,6.90
2019-02-26T12:59:34.904Z,6.90
2019-02-26T13:02:05.582Z,6.07
2019-02-26T13:04:37.423Z,6.50
2019-02-26T13:07:08.628Z,6.77
2019-02-26T13:09:41.228Z,8.90
2019-02-26T13:12:06.836Z,7.83
2019-02-26T13:14:35.724Z,7.10
2019-02-26T13:17:04.740Z,6.93
2019-02-26T13:19:36.834Z,6.67
2019-02-26T13:22:06.703Z,7.40
2019-02-26T13:24:35.016Z,7.00
2019-02-26T13:27:04.151Z,7.13
2019-02-26T13:29:32.956Z,6.93
2019-02-26T13:32:01.916Z,7.60
2019-02-26T13:34:30.786Z,7.17
2019-02-26T13:36:59.648Z,7.57
2019-02-26T13:39:33.039Z,8.43
2019-02-26T13:42:05.669Z,6.80
2019-02-26T13:44:30.135Z,6.83
2019-02-26T13:46:59.029Z,6.67
2019-02-26T13:49:28.252Z,7.10
2019-02-26T13:51:57.177Z,6.87
2019-02-26T13:54:25.940Z,7.27
2019-02-26T13:56:54.840Z,7.80
2019-02-26T13:59:24.081Z,6.80
2019-02-26T14:01:52.882Z,7.87
2019-02-26T14:04:22.532Z,8.10
2019-02-26T14:06:51.440Z,7.90
2019-02-26T14:09:20.200Z,7.13
2019-02-26T14:11:49.045Z,7.30
2019-02-26T14:14:17.924Z,6.60
2019-02-26T14:16:46.771Z,7.80
2019-02-26T14:19:15.564Z,7.10
2019-02-26T14:21:44.540Z,6.87
2019-02-26T14:24:13.364Z,7.40
2019-02-26T14:26:42.165Z,7.70
2019-02-26T14:29:11.036Z,9.23
2019-02-26T14:31:40.133Z,7.23
2019-02-26T14:34:08.936Z,8.37
2019-02-26T14:36:37.769Z,7.23
2019-02-26T14:39:07.921Z,7.40
2019-02-26T14:41:36.908Z,7.83
2019-02-26T14:44:05.806Z,8.00
2019-02-26T14:46:34.660Z,8.03
2019-02-26T14:49:03.881Z,9.80
2019-02-26T14:51:33.056Z,8.63
2019-02-26T14:54:01.949Z,9.40
2019-02-26T14:56:30.908Z,8.03
2019-02-26T14:58:59.852Z,8.40
2019-02-26T15:01:28.748Z,6.97
2019-02-26T15:03:57.936Z,7.90
2019-02-26T15:06:26.897Z,7.50
2019-02-26T15:08:55.776Z,7.17
2019-02-26T15:11:24.569Z,7.17
2019-02-26T15:13:53.444Z,6.97
2019-02-26T15:16:22.480Z,5.77
2019-02-26T15:18:51.451Z,5.20
2019-02-26T15:21:20.301Z,5.43
2019-02-26T15:23:50.391Z,5.50
2019-02-26T15:26:19.596Z,6.13
2019-02-26T15:28:49.050Z,6.20
2019-02-26T15:31:18.489Z,5.10
2019-02-26T15:33:47.369Z,7.13
2019-02-26T15:36:16.236Z,6.43
2019-02-26T15:38:45.289Z,6.20
2019-02-26T15:41:14.192Z,6.77
2019-02-26T15:43:43.160Z,7.13
2019-02-26T15:46:12.041Z,8.17
2019-02-26T15:48:40.827Z,7.47
2019-02-26T15:51:14.310Z,7.63
2019-02-26T15:53:40.825Z,6.67
2019-02-26T15:56:10.359Z,7.67
2019-02-26T15:58:39.273Z,6.60
2019-02-26T16:01:12.875Z,7.40
2019-02-26T16:03:41.751Z,7.20
2019-02-26T16:06:10.608Z,6.80
2019-02-26T16:08:41.323Z,8.40
2019-02-26T16:11:10.060Z,7.03
2019-02-26T16:13:39.232Z,6.53
2019-02-26T16:16:08.225Z,7.43
2019-02-26T16:18:37.184Z,6.20
2019-02-26T16:21:06.044Z,6.17
2019-02-26T16:23:34.925Z,5.60
2019-02-26T16:26:05.692Z,5.47
2019-02-26T16:28:34.440Z,6.00
2019-02-26T16:31:04.615Z,5.80
2019-02-26T16:33:33.737Z,5.60
2019-02-26T16:36:02.560Z,6.80
2019-02-26T16:38:32.172Z,7.97
2019-02-26T16:41:02.801Z,9.40
2019-02-26T16:43:31.738Z,10.57
2019-02-26T16:46:00.644Z,11.27
2019-02-26T16:48:29.516Z,10.60
2019-02-26T16:50:58.809Z,10.17
2019-02-26T16:53:27.789Z,8.53
2019-02-26T16:55:56.673Z,7.83
2019-02-26T16:58:25.467Z,9.30
2019-02-26T17:00:54.361Z,6.73
2019-02-26T17:03:23.887Z,7.40
2019-02-26T17:05:52.768Z,7.10
2019-02-26T17:08:21.571Z,8.13
2019-02-26T17:10:50.918Z,8.20
2019-02-26T17:13:19.877Z,9.10
2019-02-26T17:15:49.113Z,8.77
2019-02-26T17:18:18.088Z,10.60
2019-02-26T17:20:47.314Z,11.67
2019-02-26T17:23:16.201Z,10.90
2019-02-26T17:25:45.074Z,12.63
2019-02-26T17:28:13.980Z,10.63
2019-02-26T17:30:42.857Z,9.80
2019-02-26T17:33:14.391Z,8.60
2019-02-26T17:35:42.168Z,10.80
2019-02-26T17:38:12.823Z,10.07
2019-02-26T17:40:42.543Z,14.20
2019-02-26T17:43:11.549Z,15.20
2019-02-26T17:45:40.500Z,18.07
2019-02-26T17:48:09.368Z,17.80
2019-02-26T17:50:38.392Z,14.53
2019-02-26T17:53:07.636Z,14.00
2019-02-26T17:55:36.577Z,16.17
2019-02-26T17:58:09.814Z,11.17
2019-02-26T18:00:38.721Z,11.67
2019-02-26T18:03:07.731Z,10.63
2019-02-26T18:05:40.459Z,9.50
2019-02-26T18:08:07.380Z,9.50
2019-02-26T18:10:36.748Z,9.57
2019-02-26T18:13:05.995Z,10.00
2019-02-26T18:15:35.287Z,10.90
2019-02-26T18:18:04.252Z,11.50
2019-02-26T18:20:33.360Z,11.40
2019-02-26T18:23:02.248Z,12.03
2019-02-26T18:25:31.264Z,8.10
2019-02-26T18:28:00.152Z,10.77
2019-02-26T18:30:29.143Z,10.27
2019-02-26T18:32:58.993Z,10.07
2019-02-26T18:35:28.400Z,10.13
2019-02-26T18:37:57.787Z,10.03
2019-02-26T18:40:28.389Z,10.33
2019-02-26T18:42:57.317Z,10.10
2019-02-26T18:45:27.877Z,10.10
2019-02-26T18:47:57.961Z,9.70
2019-02-26T18:50:28.643Z,10.47
2019-02-26T18:52:58.452Z,10.17
2019-02-26T18:55:30.227Z,9.00
2019-02-26T18:57:58.609Z,10.00
2019-02-26T19:00:27.612Z,9.63
2019-02-26T19:02:57.003Z,9.07
2019-02-26T19:05:25.887Z,10.07
2019-02-26T19:07:55.320Z,10.20
2019-02-26T19:10:24.320Z,9.73
2019-02-26T19:12:53.287Z,9.60
2019-02-26T19:15:22.162Z,9.80
2019-02-26T19:17:52.288Z,9.43
2019-02-26T19:20:23.676Z,9.70
2019-02-26T19:22:52.600Z,10.50
2019-02-26T19:25:21.816Z,14.40
2019-02-26T19:27:52.973Z,10.57
2019-02-26T19:30:21.781Z,8.93
2019-02-26T19:32:50.785Z,9.00
2019-02-26T19:35:20.060Z,9.57
2019-02-26T19:37:52.763Z,8.90
2019-02-26T19:40:23.460Z,8.30
2019-02-26T19:42:52.902Z,10.77
2019-02-26T19:45:22.434Z,9.70
2019-02-26T19:47:51.348Z,8.00
2019-02-26T19:50:20.580Z,8.83
2019-02-26T19:52:56.662Z,9.97
2019-02-26T19:55:23.278Z,7.57
2019-02-26T19:57:52.128Z,8.23
2019-02-26T20:00:21.060Z,7.10
2019-02-26T20:02:49.920Z,7.70
2019-02-26T20:05:18.937Z,12.17
2019-02-26T20:07:47.783Z,8.27
2019-02-26T20:10:17.013Z,8.20
2019-02-26T20:12:45.909Z,9.47
2019-02-26T20:15:15.101Z,8.80
2019-02-26T20:17:44.085Z,8.10
2019-02-26T20:20:13.968Z,9.87
2019-02-26T20:22:43.109Z,10.30
2019-02-26T20:25:13.788Z,9.90
2019-02-26T20:27:42.677Z,11.20
2019-02-26T20:30:14.452Z,10.40
2019-02-26T20:32:43.592Z,10.07
2019-02-26T20:35:12.740Z,12.93
2019-02-26T20:37:41.688Z,17.57
2019-02-26T20:40:15.974Z,17.63
2019-02-26T20:42:43.352Z,20.20
2019-02-26T20:45:17.810Z,16.70
2019-02-26T20:47:46.275Z,15.30
2019-02-26T20:50:20.122Z,13.20
2019-02-26T20:52:47.089Z,13.97
2019-02-26T20:55:19.188Z,13.70
2019-02-26T20:57:48.921Z,13.23
2019-02-26T21:00:18.716Z,13.87
2019-02-26T21:02:47.699Z,12.93
2019-02-26T21:05:17.064Z,13.03
2019-02-26T21:07:46.615Z,14.70
2019-02-26T21:10:16.059Z,12.80
2019-02-26T21:12:45.104Z,11.73
2019-02-26T21:15:15.564Z,10.57
2019-02-26T21:17:44.552Z,13.93
2019-02-26T21:20:14.144Z,13.17
2019-02-26T21:22:43.184Z,13.53
2019-02-26T21:25:12.440Z,12.50
2019-02-26T21:27:41.428Z,12.50
2019-02-26T21:30:12.653Z,11.40
2019-02-26T21:32:41.586Z,9.60
2019-02-26T21:35:10.911Z,10.20
2019-02-26T21:37:39.735Z,9.70
2019-02-26T21:40:08.969Z,8.10
2019-02-26T21:42:37.740Z,8.37
2019-02-26T21:45:07.032Z,9.83
2019-02-26T21:47:36.288Z,9.30
2019-02-26T21:50:05.780Z,9.90
2019-02-26T21:52:34.580Z,8.30
2019-02-26T21:55:03.781Z,9.43
2019-02-26T21:57:32.792Z,9.83
2019-02-26T22:00:05.137Z,11.03
2019-02-26T22:02:32.325Z,11.00
2019-02-26T22:05:04.993Z,8.90
2019-02-26T22:07:31.686Z,8.70
2019-02-26T22:10:00.849Z,10.10
2019-02-26T22:12:29.901Z,10.57
2019-02-26T22:14:58.796Z,10.03
2019-02-26T22:17:27.600Z,9.73
2019-02-26T22:19:56.568Z,10.47
2019-02-26T22:22:26.276Z,10.63
2019-02-26T22:24:55.512Z,8.67
2019-02-26T22:27:24.318Z,8.10
2019-02-26T22:29:53.115Z,9.00
2019-02-26T22:32:22.169Z,8.77
2019-02-26T22:37:13.373Z,8.37
2019-02-26T22:39:42.332Z,10.27
2019-02-26T22:42:11.124Z,9.03
2019-02-26T22:44:40.072Z,9.10
2019-02-26T22:47:08.976Z,10.60
2019-02-26T22:49:37.877Z,10.27
2019-02-26T22:52:06.856Z,8.60
2019-02-26T22:54:35.838Z,8.43
2019-02-26T22:57:05.673Z,8.53
2019-02-26T22:59:34.565Z,8.37
2019-02-26T23:02:03.898Z,7.27
2019-02-26T23:04:32.897Z,7.07
2019-02-26T23:07:04.431Z,8.00
2019-02-26T23:09:32.796Z,7.40
2019-02-26T23:12:04.861Z,7.67
2019-02-26T23:14:33.169Z,8.43
2019-02-26T23:17:02.132Z,8.30
2019-02-26T23:19:31.048Z,10.40
2019-02-26T23:22:00.000Z,8.50
2019-02-26T23:24:29.760Z,9.30
2019-02-26T23:26:58.752Z,6.10
2019-02-26T23:29:27.976Z,8.10
2019-02-26T23:31:58.282Z,8.43
2019-02-26T23:34:27.276Z,8.53
2019-02-26T23:36:58.673Z,12.30
2019-02-26T23:39:26.988Z,9.90
2019-02-26T23:41:55.760Z,8.90
2019-02-26T23:44:25.105Z,8.50
2019-02-26T23:46:54.020Z,9.40
2019-02-26T23:49:23.076Z,8.17
2019-02-26T23:51:53.818Z,7.47
2019-02-26T23:54:22.808Z,7.43
2019-02-26T23:56:52.214Z,8.87
2019-02-26T23:59:21.620Z,8.67
